sensor_id;sensor_type;location;lat;lon;timestamp;temperature;humidity
3528;DHT22;1778;47.966;7.854;2024-01-11T00:00:41;-4.60;99.90
3528;DHT22;1778;47.966;7.854;2024-01-11T00:01:46;-4.60;99.90
3528;DHT22;1778;47.966;7.854;2024-01-11T00:02:48;-4.50;99.90
3528;DHT22;1778;47.966;7.854;2024-01-11T00:03:49;-4.50;99.90
3528;DHT22;1778;47.966;7.854;2024-01-11T00:04:51;-4.50;99.90
3528;DHT22;1778;47.966;7.854;2024-01-11T00:05:52;-4.40;99.90
3528;DHT22;1778;47.966;7.854;2024-01-11T00:06:54;-4.40;99.90
3528;DHT22;1778;47.966;7.854;2024-01-11T00:07:55;-4.40;99.90
3528;DHT22;1778;47.966;7.854;2024-01-11T00:08:57;-4.30;99.90
3528;DHT22;1778;47.966;7.854;2024-01-11T00:10:01;-4.30;99.90
3528;DHT22;1778;47.966;7.854;2024-01-11T00:11:02;-4.30;99.90
3528;DHT22;1778;47.966;7.854;2024-01-11T00:12:05;-4.40;99.90
3528;DHT22;1778;47.966;7.854;2024-01-11T00:13:07;-4.40;99.90
3528;DHT22;1778;47.966;7.854;2024-01-11T00:14:09;-4.40;99.90
3528;DHT22;1778;47.966;7.854;2024-01-11T00:15:10;-4.40;99.90
3528;DHT22;1778;47.966;7.854;2024-01-11T00:16:12;-4.30;99.90
3528;DHT22;1778;47.966;7.854;2024-01-11T00:17:13;-4.30;99.90
3528;DHT22;1778;47.966;7.854;2024-01-11T00:18:14;-4.30;99.90
3528;DHT22;1778;47.966;7.854;2024-01-11T00:19:16;-4.20;99.90
3528;DHT22;1778;47.966;7.854;2024-01-11T00:20:18;-4.30;99.90
3528;DHT22;1778;47.966;7.854;2024-01-11T00:21:19;-4.30;99.90
3528;DHT22;1778;47.966;7.854;2024-01-11T00:22:21;-4.20;99.90
3528;DHT22;1778;47.966;7.854;2024-01-11T00:23:22;-4.20;99.90
3528;DHT22;1778;47.966;7.854;2024-01-11T00:24:24;-4.30;99.90
3528;DHT22;1778;47.966;7.854;2024-01-11T00:25:25;-4.40;99.90
3528;DHT22;1778;47.966;7.854;2024-01-11T00:26:27;-4.40;99.90
3528;DHT22;1778;47.966;7.854;2024-01-11T00:27:29;-4.40;99.90
3528;DHT22;1778;47.966;7.854;2024-01-11T00:28:30;-4.30;99.90
3528;DHT22;1778;47.966;7.854;2024-01-11T00:29:32;-4.30;99.90
3528;DHT22;1778;47.966;7.854;2024-01-11T00:30:33;-4.30;99.90
3528;DHT22;1778;47.966;7.854;2024-01-11T00:31:35;-4.30;99.90
3528;DHT22;1778;47.966;7.854;2024-01-11T00:32:37;-4.30;99.90
3528;DHT22;1778;47.966;7.854;2024-01-11T00:33:39;-4.40;99.90
3528;DHT22;1778;47.966;7.854;2024-01-11T00:34:40;-4.40;99.90
3528;DHT22;1778;47.966;7.854;2024-01-11T00:35:42;-4.60;99.90
3528;DHT22;1778;47.966;7.854;2024-01-11T00:36:43;-4.60;99.90
3528;DHT22;1778;47.966;7.854;2024-01-11T00:37:45;-4.70;99.90
3528;DHT22;1778;47.966;7.854;2024-01-11T00:38:46;-4.70;99.90
3528;DHT22;1778;47.966;7.854;2024-01-11T00:39:48;-4.80;99.90
3528;DHT22;1778;47.966;7.854;2024-01-11T00:40:49;-4.80;99.90
3528;DHT22;1778;47.966;7.854;2024-01-11T00:41:51;-4.80;99.90
3528;DHT22;1778;47.966;7.854;2024-01-11T00:42:52;-4.80;99.90
3528;DHT22;1778;47.966;7.854;2024-01-11T00:43:53;-4.80;99.90
3528;DHT22;1778;47.966;7.854;2024-01-11T00:44:55;-4.80;99.90
3528;DHT22;1778;47.966;7.854;2024-01-11T00:45:56;-4.70;99.90
3528;DHT22;1778;47.966;7.854;2024-01-11T00:46:57;-4.70;99.90
3528;DHT22;1778;47.966;7.854;2024-01-11T00:47:59;-4.70;99.90
3528;DHT22;1778;47.966;7.854;2024-01-11T00:49:01;-4.70;99.90
3528;DHT22;1778;47.966;7.854;2024-01-11T00:50:03;-4.60;99.90
3528;DHT22;1778;47.966;7.854;2024-01-11T00:51:05;-4.60;99.90
3528;DHT22;1778;47.966;7.854;2024-01-11T00:52:06;-4.50;99.90
3528;DHT22;1778;47.966;7.854;2024-01-11T00:53:08;-4.40;99.90
3528;DHT22;1778;47.966;7.854;2024-01-11T00:54:10;-4.40;99.90
3528;DHT22;1778;47.966;7.854;2024-01-11T00:55:12;-4.50;99.90
3528;DHT22;1778;47.966;7.854;2024-01-11T00:56:17;-4.50;99.90
3528;DHT22;1778;47.966;7.854;2024-01-11T00:57:19;-4.50;99.90
3528;DHT22;1778;47.966;7.854;2024-01-11T00:58:22;-4.50;99.90
3528;DHT22;1778;47.966;7.854;2024-01-11T00:59:24;-4.60;99.90
3528;DHT22;1778;47.966;7.854;2024-01-11T01:00:26;-4.60;99.90
3528;DHT22;1778;47.966;7.854;2024-01-11T01:01:27;-4.60;99.90
3528;DHT22;1778;47.966;7.854;2024-01-11T01:02:29;-4.60;99.90
3528;DHT22;1778;47.966;7.854;2024-01-11T01:03:30;-4.60;99.90
3528;DHT22;1778;47.966;7.854;2024-01-11T01:04:32;-4.60;99.90
3528;DHT22;1778;47.966;7.854;2024-01-11T01:05:33;-4.70;99.90
3528;DHT22;1778;47.966;7.854;2024-01-11T01:06:35;-4.70;99.90
3528;DHT22;1778;47.966;7.854;2024-01-11T01:07:37;-4.60;99.90
3528;DHT22;1778;47.966;7.854;2024-01-11T01:08:38;-4.70;99.90
3528;DHT22;1778;47.966;7.854;2024-01-11T01:09:40;-4.70;99.90
3528;DHT22;1778;47.966;7.854;2024-01-11T01:10:42;-4.70;99.90
3528;DHT22;1778;47.966;7.854;2024-01-11T01:11:43;-4.80;99.90
3528;DHT22;1778;47.966;7.854;2024-01-11T01:12:45;-4.80;99.90
3528;DHT22;1778;47.966;7.854;2024-01-11T01:13:47;-4.80;99.90
3528;DHT22;1778;47.966;7.854;2024-01-11T01:14:48;-4.80;99.90
3528;DHT22;1778;47.966;7.854;2024-01-11T01:15:50;-4.80;99.90
3528;DHT22;1778;47.966;7.854;2024-01-11T01:16:51;-4.80;99.90
3528;DHT22;1778;47.966;7.854;2024-01-11T01:17:53;-4.80;99.90
3528;DHT22;1778;47.966;7.854;2024-01-11T01:18:54;-4.80;99.90
3528;DHT22;1778;47.966;7.854;2024-01-11T01:19:56;-4.80;99.90
3528;DHT22;1778;47.966;7.854;2024-01-11T01:20:59;-4.80;99.90
3528;DHT22;1778;47.966;7.854;2024-01-11T01:22:00;-4.80;99.90
3528;DHT22;1778;47.966;7.854;2024-01-11T01:23:02;-4.80;99.90
3528;DHT22;1778;47.966;7.854;2024-01-11T01:24:03;-4.80;99.90
3528;DHT22;1778;47.966;7.854;2024-01-11T01:25:05;-4.80;99.90
3528;DHT22;1778;47.966;7.854;2024-01-11T01:26:07;-4.80;99.90
3528;DHT22;1778;47.966;7.854;2024-01-11T01:27:08;-4.80;99.90
3528;DHT22;1778;47.966;7.854;2024-01-11T01:28:10;-4.70;99.90
3528;DHT22;1778;47.966;7.854;2024-01-11T01:29:11;-4.80;99.90
3528;DHT22;1778;47.966;7.854;2024-01-11T01:30:13;-4.80;99.90
3528;DHT22;1778;47.966;7.854;2024-01-11T01:31:14;-4.70;99.90
3528;DHT22;1778;47.966;7.854;2024-01-11T01:32:16;-4.70;99.90
3528;DHT22;1778;47.966;7.854;2024-01-11T01:33:18;-4.80;99.90
3528;DHT22;1778;47.966;7.854;2024-01-11T01:34:20;-4.80;99.90
3528;DHT22;1778;47.966;7.854;2024-01-11T01:35:22;-4.70;99.90
3528;DHT22;1778;47.966;7.854;2024-01-11T01:36:23;-4.70;99.90
3528;DHT22;1778;47.966;7.854;2024-01-11T01:37:24;-4.60;99.90
3528;DHT22;1778;47.966;7.854;2024-01-11T01:38:26;-4.50;99.90
3528;DHT22;1778;47.966;7.854;2024-01-11T01:39:28;-4.60;99.90
3528;DHT22;1778;47.966;7.854;2024-01-11T01:40:30;-4.60;99.90
3528;DHT22;1778;47.966;7.854;2024-01-11T01:41:33;-4.60;99.90
3528;DHT22;1778;47.966;7.854;2024-01-11T01:42:34;-4.50;99.90
3528;DHT22;1778;47.966;7.854;2024-01-11T01:43:36;-4.50;99.90
3528;DHT22;1778;47.966;7.854;2024-01-11T01:44:37;-4.40;99.90
3528;DHT22;1778;47.966;7.854;2024-01-11T01:45:42;-4.50;99.90
3528;DHT22;1778;47.966;7.854;2024-01-11T01:46:44;-4.50;99.90
3528;DHT22;1778;47.966;7.854;2024-01-11T01:47:45;-4.50;99.90
3528;DHT22;1778;47.966;7.854;2024-01-11T01:48:47;-4.60;99.90
3528;DHT22;1778;47.966;7.854;2024-01-11T01:49:49;-4.60;99.90
3528;DHT22;1778;47.966;7.854;2024-01-11T01:50:51;-4.50;99.90
3528;DHT22;1778;47.966;7.854;2024-01-11T01:51:53;-4.40;99.90
3528;DHT22;1778;47.966;7.854;2024-01-11T01:52:55;-4.60;99.90
3528;DHT22;1778;47.966;7.854;2024-01-11T01:53:57;-4.70;99.90
3528;DHT22;1778;47.966;7.854;2024-01-11T01:55:01;-4.80;99.90
3528;DHT22;1778;47.966;7.854;2024-01-11T01:56:03;-4.70;99.90
3528;DHT22;1778;47.966;7.854;2024-01-11T01:57:05;-4.70;99.90
3528;DHT22;1778;47.966;7.854;2024-01-11T01:58:08;-4.70;99.90
3528;DHT22;1778;47.966;7.854;2024-01-11T01:59:09;-4.60;99.90
3528;DHT22;1778;47.966;7.854;2024-01-11T02:00:12;-4.60;99.90
3528;DHT22;1778;47.966;7.854;2024-01-11T02:01:15;-4.60;99.90
3528;DHT22;1778;47.966;7.854;2024-01-11T02:02:16;-4.60;99.90
3528;DHT22;1778;47.966;7.854;2024-01-11T02:03:22;-4.50;99.90
3528;DHT22;1778;47.966;7.854;2024-01-11T02:04:25;-4.50;99.90
3528;DHT22;1778;47.966;7.854;2024-01-11T02:05:27;-4.40;99.90
3528;DHT22;1778;47.966;7.854;2024-01-11T02:06:31;-4.50;99.90
3528;DHT22;1778;47.966;7.854;2024-01-11T02:07:33;-4.60;99.90
3528;DHT22;1778;47.966;7.854;2024-01-11T02:08:35;-4.60;99.90
3528;DHT22;1778;47.966;7.854;2024-01-11T02:09:38;-4.70;99.90
3528;DHT22;1778;47.966;7.854;2024-01-11T02:10:39;-4.80;99.90
3528;DHT22;1778;47.966;7.854;2024-01-11T02:11:41;-4.80;99.90
3528;DHT22;1778;47.966;7.854;2024-01-11T02:12:43;-4.80;99.90
3528;DHT22;1778;47.966;7.854;2024-01-11T02:13:45;-4.90;99.90
3528;DHT22;1778;47.966;7.854;2024-01-11T02:14:46;-5.00;99.90
3528;DHT22;1778;47.966;7.854;2024-01-11T02:15:48;-5.00;99.90
3528;DHT22;1778;47.966;7.854;2024-01-11T02:16:49;-5.00;99.90
3528;DHT22;1778;47.966;7.854;2024-01-11T02:17:51;-5.10;99.90
3528;DHT22;1778;47.966;7.854;2024-01-11T02:18:53;-5.10;99.90
3528;DHT22;1778;47.966;7.854;2024-01-11T02:19:54;-5.10;99.90
3528;DHT22;1778;47.966;7.854;2024-01-11T02:20:56;-5.10;99.90
3528;DHT22;1778;47.966;7.854;2024-01-11T02:22:00;-5.20;99.90
3528;DHT22;1778;47.966;7.854;2024-01-11T02:23:05;-5.10;99.90
3528;DHT22;1778;47.966;7.854;2024-01-11T02:24:09;-5.10;99.90
3528;DHT22;1778;47.966;7.854;2024-01-11T02:25:11;-5.00;99.90
3528;DHT22;1778;47.966;7.854;2024-01-11T02:26:13;-5.10;99.90
3528;DHT22;1778;47.966;7.854;2024-01-11T02:27:15;-5.10;99.90
3528;DHT22;1778;47.966;7.854;2024-01-11T02:28:17;-5.10;99.90
3528;DHT22;1778;47.966;7.854;2024-01-11T02:29:19;-5.00;99.90
3528;DHT22;1778;47.966;7.854;2024-01-11T02:30:20;-5.10;99.90
3528;DHT22;1778;47.966;7.854;2024-01-11T02:31:22;-5.10;99.90
3528;DHT22;1778;47.966;7.854;2024-01-11T02:32:23;-5.00;99.90
3528;DHT22;1778;47.966;7.854;2024-01-11T02:33:25;-4.90;99.90
3528;DHT22;1778;47.966;7.854;2024-01-11T02:34:27;-5.00;99.90
3528;DHT22;1778;47.966;7.854;2024-01-11T02:35:31;-5.00;99.90
3528;DHT22;1778;47.966;7.854;2024-01-11T02:36:33;-5.00;99.90
3528;DHT22;1778;47.966;7.854;2024-01-11T02:37:36;-4.90;99.90
3528;DHT22;1778;47.966;7.854;2024-01-11T02:38:41;-4.80;99.90
3528;DHT22;1778;47.966;7.854;2024-01-11T02:39:43;-4.70;99.90
3528;DHT22;1778;47.966;7.854;2024-01-11T02:40:44;-4.70;99.90
3528;DHT22;1778;47.966;7.854;2024-01-11T02:41:48;-4.80;99.90
3528;DHT22;1778;47.966;7.854;2024-01-11T02:42:51;-4.80;99.90
3528;DHT22;1778;47.966;7.854;2024-01-11T02:43:53;-4.70;99.90
3528;DHT22;1778;47.966;7.854;2024-01-11T02:44:55;-4.80;99.90
3528;DHT22;1778;47.966;7.854;2024-01-11T02:45:56;-4.80;99.90
3528;DHT22;1778;47.966;7.854;2024-01-11T02:47:00;-4.90;99.90
3528;DHT22;1778;47.966;7.854;2024-01-11T02:48:01;-5.00;99.90
3528;DHT22;1778;47.966;7.854;2024-01-11T02:49:03;-5.00;99.90
3528;DHT22;1778;47.966;7.854;2024-01-11T02:50:06;-5.00;99.90
3528;DHT22;1778;47.966;7.854;2024-01-11T02:51:08;-5.00;99.90
3528;DHT22;1778;47.966;7.854;2024-01-11T02:52:10;-5.00;99.90
3528;DHT22;1778;47.966;7.854;2024-01-11T02:53:11;-5.00;99.90
3528;DHT22;1778;47.966;7.854;2024-01-11T02:54:12;-5.00;99.90
3528;DHT22;1778;47.966;7.854;2024-01-11T02:55:14;-5.00;99.90
3528;DHT22;1778;47.966;7.854;2024-01-11T02:56:15;-5.00;99.90
3528;DHT22;1778;47.966;7.854;2024-01-11T02:57:17;-5.00;99.90
3528;DHT22;1778;47.966;7.854;2024-01-11T02:58:19;-4.90;99.90
3528;DHT22;1778;47.966;7.854;2024-01-11T02:59:20;-4.90;99.90
3528;DHT22;1778;47.966;7.854;2024-01-11T03:00:22;-4.90;99.90
3528;DHT22;1778;47.966;7.854;2024-01-11T03:01:24;-4.80;99.90
3528;DHT22;1778;47.966;7.854;2024-01-11T03:02:25;-4.80;99.90
3528;DHT22;1778;47.966;7.854;2024-01-11T03:03:27;-4.90;99.90
3528;DHT22;1778;47.966;7.854;2024-01-11T03:04:29;-4.90;99.90
3528;DHT22;1778;47.966;7.854;2024-01-11T03:05:30;-4.90;99.90
3528;DHT22;1778;47.966;7.854;2024-01-11T03:06:32;-4.90;99.90
3528;DHT22;1778;47.966;7.854;2024-01-11T03:07:33;-4.90;99.90
3528;DHT22;1778;47.966;7.854;2024-01-11T03:08:35;-4.90;99.90
3528;DHT22;1778;47.966;7.854;2024-01-11T03:09:36;-5.00;99.90
3528;DHT22;1778;47.966;7.854;2024-01-11T03:10:38;-4.90;99.90
3528;DHT22;1778;47.966;7.854;2024-01-11T03:11:40;-5.00;99.90
3528;DHT22;1778;47.966;7.854;2024-01-11T03:12:43;-4.90;99.90
3528;DHT22;1778;47.966;7.854;2024-01-11T03:13:44;-5.00;99.90
3528;DHT22;1778;47.966;7.854;2024-01-11T03:14:46;-5.00;99.90
3528;DHT22;1778;47.966;7.854;2024-01-11T03:15:48;-5.00;99.90
3528;DHT22;1778;47.966;7.854;2024-01-11T03:16:49;-5.10;99.90
3528;DHT22;1778;47.966;7.854;2024-01-11T03:17:51;-5.10;99.90
3528;DHT22;1778;47.966;7.854;2024-01-11T03:18:52;-5.00;99.90
3528;DHT22;1778;47.966;7.854;2024-01-11T03:19:54;-5.00;99.90
3528;DHT22;1778;47.966;7.854;2024-01-11T03:20:55;-4.90;99.90
3528;DHT22;1778;47.966;7.854;2024-01-11T03:21:57;-4.90;99.90
3528;DHT22;1778;47.966;7.854;2024-01-11T03:22:58;-5.00;99.90
3528;DHT22;1778;47.966;7.854;2024-01-11T03:24:00;-4.80;99.90
3528;DHT22;1778;47.966;7.854;2024-01-11T03:25:01;-4.80;99.90
3528;DHT22;1778;47.966;7.854;2024-01-11T03:26:03;-4.80;99.90
3528;DHT22;1778;47.966;7.854;2024-01-11T03:27:05;-4.70;99.90
3528;DHT22;1778;47.966;7.854;2024-01-11T03:28:07;-4.80;99.90
3528;DHT22;1778;47.966;7.854;2024-01-11T03:29:09;-4.80;99.90
3528;DHT22;1778;47.966;7.854;2024-01-11T03:30:11;-4.80;99.90
3528;DHT22;1778;47.966;7.854;2024-01-11T03:31:12;-4.80;99.90
3528;DHT22;1778;47.966;7.854;2024-01-11T03:32:14;-5.00;99.90
3528;DHT22;1778;47.966;7.854;2024-01-11T03:33:15;-5.00;99.90
3528;DHT22;1778;47.966;7.854;2024-01-11T03:34:17;-5.10;99.90
3528;DHT22;1778;47.966;7.854;2024-01-11T03:35:20;-5.10;99.90
3528;DHT22;1778;47.966;7.854;2024-01-11T03:36:25;-5.10;99.90
3528;DHT22;1778;47.966;7.854;2024-01-11T03:37:26;-5.10;99.90
3528;DHT22;1778;47.966;7.854;2024-01-11T03:38:27;-5.20;99.90
3528;DHT22;1778;47.966;7.854;2024-01-11T03:39:29;-5.10;99.90
3528;DHT22;1778;47.966;7.854;2024-01-11T03:40:30;-5.10;99.90
3528;DHT22;1778;47.966;7.854;2024-01-11T03:41:32;-5.10;99.90
3528;DHT22;1778;47.966;7.854;2024-01-11T03:42:34;-5.20;99.90
3528;DHT22;1778;47.966;7.854;2024-01-11T03:43:36;-5.20;99.90
3528;DHT22;1778;47.966;7.854;2024-01-11T03:44:38;-5.20;99.90
3528;DHT22;1778;47.966;7.854;2024-01-11T03:45:39;-5.20;99.90
3528;DHT22;1778;47.966;7.854;2024-01-11T03:46:41;-5.30;99.90
3528;DHT22;1778;47.966;7.854;2024-01-11T03:47:42;-5.20;99.90
3528;DHT22;1778;47.966;7.854;2024-01-11T03:48:44;-5.30;99.90
3528;DHT22;1778;47.966;7.854;2024-01-11T03:49:46;-5.30;99.90
3528;DHT22;1778;47.966;7.854;2024-01-11T03:50:47;-5.30;99.90
3528;DHT22;1778;47.966;7.854;2024-01-11T03:51:48;-5.20;99.90
3528;DHT22;1778;47.966;7.854;2024-01-11T03:52:50;-5.20;99.90
3528;DHT22;1778;47.966;7.854;2024-01-11T03:53:51;-5.30;99.90
3528;DHT22;1778;47.966;7.854;2024-01-11T03:54:53;-5.30;99.90
3528;DHT22;1778;47.966;7.854;2024-01-11T03:55:54;-5.40;99.90
3528;DHT22;1778;47.966;7.854;2024-01-11T03:56:56;-5.40;99.90
3528;DHT22;1778;47.966;7.854;2024-01-11T03:57:58;-5.40;99.90
3528;DHT22;1778;47.966;7.854;2024-01-11T03:58:59;-5.40;99.90
3528;DHT22;1778;47.966;7.854;2024-01-11T04:00:01;-5.40;99.90
3528;DHT22;1778;47.966;7.854;2024-01-11T04:01:04;-5.30;99.90
3528;DHT22;1778;47.966;7.854;2024-01-11T04:02:06;-5.30;99.90
3528;DHT22;1778;47.966;7.854;2024-01-11T04:03:08;-5.30;99.90
3528;DHT22;1778;47.966;7.854;2024-01-11T04:04:10;-5.40;99.90
3528;DHT22;1778;47.966;7.854;2024-01-11T04:05:12;-5.40;99.90
3528;DHT22;1778;47.966;7.854;2024-01-11T04:06:21;-5.40;99.90
3528;DHT22;1778;47.966;7.854;2024-01-11T04:07:23;-5.40;99.90
3528;DHT22;1778;47.966;7.854;2024-01-11T04:08:25;-5.50;99.90
3528;DHT22;1778;47.966;7.854;2024-01-11T04:09:27;-5.50;99.90
3528;DHT22;1778;47.966;7.854;2024-01-11T04:10:28;-5.50;99.90
3528;DHT22;1778;47.966;7.854;2024-01-11T04:11:30;-5.50;99.90
3528;DHT22;1778;47.966;7.854;2024-01-11T04:12:32;-5.50;99.90
3528;DHT22;1778;47.966;7.854;2024-01-11T04:13:33;-5.50;99.90
3528;DHT22;1778;47.966;7.854;2024-01-11T04:14:38;-5.50;99.90
3528;DHT22;1778;47.966;7.854;2024-01-11T04:15:41;-5.50;99.90
3528;DHT22;1778;47.966;7.854;2024-01-11T04:16:43;-5.50;99.90
3528;DHT22;1778;47.966;7.854;2024-01-11T04:17:44;-5.40;99.90
3528;DHT22;1778;47.966;7.854;2024-01-11T04:18:46;-5.40;99.90
3528;DHT22;1778;47.966;7.854;2024-01-11T04:19:48;-5.40;99.90
3528;DHT22;1778;47.966;7.854;2024-01-11T04:20:50;-5.50;99.90
3528;DHT22;1778;47.966;7.854;2024-01-11T04:21:51;-5.50;99.90
3528;DHT22;1778;47.966;7.854;2024-01-11T04:22:53;-5.50;99.90
3528;DHT22;1778;47.966;7.854;2024-01-11T04:23:54;-5.50;99.90
3528;DHT22;1778;47.966;7.854;2024-01-11T04:24:56;-5.40;99.90
3528;DHT22;1778;47.966;7.854;2024-01-11T04:25:57;-5.40;99.90
3528;DHT22;1778;47.966;7.854;2024-01-11T04:26:59;-5.40;99.90
3528;DHT22;1778;47.966;7.854;2024-01-11T04:28:01;-5.30;99.90
3528;DHT22;1778;47.966;7.854;2024-01-11T04:29:02;-5.20;99.90
3528;DHT22;1778;47.966;7.854;2024-01-11T04:30:04;-5.20;99.90
3528;DHT22;1778;47.966;7.854;2024-01-11T04:31:08;-5.20;99.90
3528;DHT22;1778;47.966;7.854;2024-01-11T04:32:10;-5.20;99.90
3528;DHT22;1778;47.966;7.854;2024-01-11T04:33:11;-5.10;99.90
3528;DHT22;1778;47.966;7.854;2024-01-11T04:34:13;-5.10;99.90
3528;DHT22;1778;47.966;7.854;2024-01-11T04:35:14;-5.20;99.90
3528;DHT22;1778;47.966;7.854;2024-01-11T04:36:16;-5.20;99.90
3528;DHT22;1778;47.966;7.854;2024-01-11T04:37:18;-5.30;99.90
3528;DHT22;1778;47.966;7.854;2024-01-11T04:38:20;-5.30;99.90
3528;DHT22;1778;47.966;7.854;2024-01-11T04:39:21;-5.30;99.90
3528;DHT22;1778;47.966;7.854;2024-01-11T04:40:23;-5.30;99.90
3528;DHT22;1778;47.966;7.854;2024-01-11T04:41:24;-5.40;99.90
3528;DHT22;1778;47.966;7.854;2024-01-11T04:42:27;-5.40;99.90
3528;DHT22;1778;47.966;7.854;2024-01-11T04:43:29;-5.40;99.90
3528;DHT22;1778;47.966;7.854;2024-01-11T04:44:30;-5.40;99.90
3528;DHT22;1778;47.966;7.854;2024-01-11T04:45:32;-5.30;99.90
3528;DHT22;1778;47.966;7.854;2024-01-11T04:46:34;-5.20;99.90
3528;DHT22;1778;47.966;7.854;2024-01-11T04:47:36;-5.30;99.90
3528;DHT22;1778;47.966;7.854;2024-01-11T04:48:39;-5.30;99.90
3528;DHT22;1778;47.966;7.854;2024-01-11T04:49:41;-5.40;99.90
3528;DHT22;1778;47.966;7.854;2024-01-11T04:50:42;-5.40;99.90
3528;DHT22;1778;47.966;7.854;2024-01-11T04:51:44;-5.40;99.90
3528;DHT22;1778;47.966;7.854;2024-01-11T04:52:46;-5.40;99.90
3528;DHT22;1778;47.966;7.854;2024-01-11T04:53:47;-5.50;99.90
3528;DHT22;1778;47.966;7.854;2024-01-11T04:54:48;-5.40;99.90
3528;DHT22;1778;47.966;7.854;2024-01-11T04:55:50;-5.30;99.90
3528;DHT22;1778;47.966;7.854;2024-01-11T04:56:52;-5.30;99.90
3528;DHT22;1778;47.966;7.854;2024-01-11T04:57:53;-5.30;99.90
3528;DHT22;1778;47.966;7.854;2024-01-11T04:58:55;-5.40;99.90
3528;DHT22;1778;47.966;7.854;2024-01-11T04:59:56;-5.40;99.90
3528;DHT22;1778;47.966;7.854;2024-01-11T05:01:02;-5.50;99.90
3528;DHT22;1778;47.966;7.854;2024-01-11T05:02:04;-5.50;99.90
3528;DHT22;1778;47.966;7.854;2024-01-11T05:03:05;-5.50;99.90
3528;DHT22;1778;47.966;7.854;2024-01-11T05:04:07;-5.40;99.90
3528;DHT22;1778;47.966;7.854;2024-01-11T05:05:08;-5.30;99.90
3528;DHT22;1778;47.966;7.854;2024-01-11T05:06:20;-5.30;99.90
3528;DHT22;1778;47.966;7.854;2024-01-11T05:07:21;-5.30;99.90
3528;DHT22;1778;47.966;7.854;2024-01-11T05:08:24;-5.20;99.90
3528;DHT22;1778;47.966;7.854;2024-01-11T05:09:26;-5.20;99.90
3528;DHT22;1778;47.966;7.854;2024-01-11T05:10:27;-5.20;99.90
3528;DHT22;1778;47.966;7.854;2024-01-11T05:11:29;-5.20;99.90
3528;DHT22;1778;47.966;7.854;2024-01-11T05:12:30;-5.30;99.90
3528;DHT22;1778;47.966;7.854;2024-01-11T05:13:32;-5.40;99.90
3528;DHT22;1778;47.966;7.854;2024-01-11T05:14:33;-5.40;99.90
3528;DHT22;1778;47.966;7.854;2024-01-11T05:15:35;-5.50;99.90
3528;DHT22;1778;47.966;7.854;2024-01-11T05:16:36;-5.50;99.90
3528;DHT22;1778;47.966;7.854;2024-01-11T05:17:38;-5.50;99.90
3528;DHT22;1778;47.966;7.854;2024-01-11T05:18:40;-5.50;99.90
3528;DHT22;1778;47.966;7.854;2024-01-11T05:19:41;-5.50;99.90
3528;DHT22;1778;47.966;7.854;2024-01-11T05:20:43;-5.40;99.90
3528;DHT22;1778;47.966;7.854;2024-01-11T05:21:45;-5.50;99.90
3528;DHT22;1778;47.966;7.854;2024-01-11T05:22:46;-5.50;99.90
3528;DHT22;1778;47.966;7.854;2024-01-11T05:23:48;-5.50;99.90
3528;DHT22;1778;47.966;7.854;2024-01-11T05:24:50;-5.60;99.90
3528;DHT22;1778;47.966;7.854;2024-01-11T05:25:52;-5.60;99.90
3528;DHT22;1778;47.966;7.854;2024-01-11T05:26:53;-5.60;99.90
3528;DHT22;1778;47.966;7.854;2024-01-11T05:27:55;-5.60;99.90
3528;DHT22;1778;47.966;7.854;2024-01-11T05:28:56;-5.60;99.90
3528;DHT22;1778;47.966;7.854;2024-01-11T05:29:58;-5.50;99.90
3528;DHT22;1778;47.966;7.854;2024-01-11T05:31:00;-5.50;99.90
3528;DHT22;1778;47.966;7.854;2024-01-11T05:32:02;-5.50;99.90
3528;DHT22;1778;47.966;7.854;2024-01-11T05:33:04;-5.50;99.90
3528;DHT22;1778;47.966;7.854;2024-01-11T05:34:05;-5.50;99.90
3528;DHT22;1778;47.966;7.854;2024-01-11T05:35:08;-5.60;99.90
3528;DHT22;1778;47.966;7.854;2024-01-11T05:36:09;-5.60;99.90
3528;DHT22;1778;47.966;7.854;2024-01-11T05:37:11;-5.60;99.90
3528;DHT22;1778;47.966;7.854;2024-01-11T05:38:13;-5.60;99.90
3528;DHT22;1778;47.966;7.854;2024-01-11T05:39:14;-5.60;99.90
3528;DHT22;1778;47.966;7.854;2024-01-11T05:40:16;-5.60;99.90
3528;DHT22;1778;47.966;7.854;2024-01-11T05:41:17;-5.50;99.90
3528;DHT22;1778;47.966;7.854;2024-01-11T05:42:19;-5.50;99.90
3528;DHT22;1778;47.966;7.854;2024-01-11T05:43:21;-5.60;99.90
3528;DHT22;1778;47.966;7.854;2024-01-11T05:44:23;-5.60;99.90
3528;DHT22;1778;47.966;7.854;2024-01-11T05:45:24;-5.60;99.90
3528;DHT22;1778;47.966;7.854;2024-01-11T05:46:41;-5.60;99.90
3528;DHT22;1778;47.966;7.854;2024-01-11T05:47:43;-5.60;99.90
3528;DHT22;1778;47.966;7.854;2024-01-11T05:48:45;-5.60;99.90
3528;DHT22;1778;47.966;7.854;2024-01-11T05:49:47;-5.60;99.90
3528;DHT22;1778;47.966;7.854;2024-01-11T05:50:49;-5.60;99.90
3528;DHT22;1778;47.966;7.854;2024-01-11T05:51:50;-5.70;99.90
3528;DHT22;1778;47.966;7.854;2024-01-11T05:52:54;-5.70;99.90
3528;DHT22;1778;47.966;7.854;2024-01-11T05:53:58;-5.60;99.90
3528;DHT22;1778;47.966;7.854;2024-01-11T05:54:59;-5.60;99.90
3528;DHT22;1778;47.966;7.854;2024-01-11T05:56:01;-5.60;99.90
3528;DHT22;1778;47.966;7.854;2024-01-11T05:57:02;-5.60;99.90
3528;DHT22;1778;47.966;7.854;2024-01-11T05:58:04;-5.60;99.90
3528;DHT22;1778;47.966;7.854;2024-01-11T05:59:05;-5.70;99.90
3528;DHT22;1778;47.966;7.854;2024-01-11T06:00:07;-5.70;99.90
3528;DHT22;1778;47.966;7.854;2024-01-11T06:01:08;-5.70;99.90
3528;DHT22;1778;47.966;7.854;2024-01-11T06:02:11;-5.60;99.90
3528;DHT22;1778;47.966;7.854;2024-01-11T06:03:13;-5.60;99.90
3528;DHT22;1778;47.966;7.854;2024-01-11T06:04:15;-5.60;99.90
3528;DHT22;1778;47.966;7.854;2024-01-11T06:05:17;-5.60;99.90
3528;DHT22;1778;47.966;7.854;2024-01-11T06:06:19;-5.60;99.90
3528;DHT22;1778;47.966;7.854;2024-01-11T06:07:21;-5.60;99.90
3528;DHT22;1778;47.966;7.854;2024-01-11T06:08:23;-5.60;99.90
3528;DHT22;1778;47.966;7.854;2024-01-11T06:09:24;-5.60;99.90
3528;DHT22;1778;47.966;7.854;2024-01-11T06:10:26;-5.60;99.90
3528;DHT22;1778;47.966;7.854;2024-01-11T06:11:28;-5.60;99.90
3528;DHT22;1778;47.966;7.854;2024-01-11T06:12:29;-5.70;99.90
3528;DHT22;1778;47.966;7.854;2024-01-11T06:13:32;-5.70;99.90
3528;DHT22;1778;47.966;7.854;2024-01-11T06:14:33;-5.70;99.90
3528;DHT22;1778;47.966;7.854;2024-01-11T06:15:35;-5.70;99.90
3528;DHT22;1778;47.966;7.854;2024-01-11T06:16:36;-5.70;99.90
3528;DHT22;1778;47.966;7.854;2024-01-11T06:17:38;-5.70;99.90
3528;DHT22;1778;47.966;7.854;2024-01-11T06:18:40;-5.80;99.90
3528;DHT22;1778;47.966;7.854;2024-01-11T06:19:41;-5.70;99.90
3528;DHT22;1778;47.966;7.854;2024-01-11T06:20:43;-5.70;99.90
3528;DHT22;1778;47.966;7.854;2024-01-11T06:21:44;-5.80;99.90
3528;DHT22;1778;47.966;7.854;2024-01-11T06:22:46;-5.80;99.90
3528;DHT22;1778;47.966;7.854;2024-01-11T06:23:47;-5.80;99.90
3528;DHT22;1778;47.966;7.854;2024-01-11T06:24:50;-5.80;99.90
3528;DHT22;1778;47.966;7.854;2024-01-11T06:25:51;-5.80;99.90
3528;DHT22;1778;47.966;7.854;2024-01-11T06:26:53;-5.70;99.90
3528;DHT22;1778;47.966;7.854;2024-01-11T06:27:54;-5.70;99.90
3528;DHT22;1778;47.966;7.854;2024-01-11T06:28:56;-5.70;99.90
3528;DHT22;1778;47.966;7.854;2024-01-11T06:29:57;-5.70;99.90
3528;DHT22;1778;47.966;7.854;2024-01-11T06:30:59;-5.70;99.90
3528;DHT22;1778;47.966;7.854;2024-01-11T06:32:02;-5.70;99.90
3528;DHT22;1778;47.966;7.854;2024-01-11T06:33:04;-5.70;99.90
3528;DHT22;1778;47.966;7.854;2024-01-11T06:34:05;-5.70;99.90
3528;DHT22;1778;47.966;7.854;2024-01-11T06:35:07;-5.60;99.90
3528;DHT22;1778;47.966;7.854;2024-01-11T06:36:09;-5.60;99.90
3528;DHT22;1778;47.966;7.854;2024-01-11T06:37:11;-5.60;99.90
3528;DHT22;1778;47.966;7.854;2024-01-11T06:38:12;-5.70;99.90
3528;DHT22;1778;47.966;7.854;2024-01-11T06:39:14;-5.80;99.90
3528;DHT22;1778;47.966;7.854;2024-01-11T06:40:15;-5.70;99.90
3528;DHT22;1778;47.966;7.854;2024-01-11T06:41:17;-5.70;99.90
3528;DHT22;1778;47.966;7.854;2024-01-11T06:42:18;-5.70;99.90
3528;DHT22;1778;47.966;7.854;2024-01-11T06:43:20;-5.70;99.90
3528;DHT22;1778;47.966;7.854;2024-01-11T06:44:21;-5.70;99.90